Terminal Aerodrome Forecast
Issued by NWS

Home | Current Version | Previous Version | Text Only | Print | Product List | Glossary On
Versions: 1 2 3 4 5 6 7 8 9 10 11 12 13 14 15 16 17 18 19 20
000
FTUS44 KTSA 282000 AAA
TAFRVS
TAF AMD
KRVS 282026Z 2820/0118 13003KT 2SM -FZRA BR FEW009 BKN012
      TEMPO 2820/2824 1SM -FZRA BR OVC009
     FM010000 12004KT 3SM -FZDZ BR OVC015
     FM010400 VRB03KT 5SM BR OVC010
      TEMPO 0104/0108 1SM -FZDZ BR OVC004
     FM011200 03003KT 2SM -FZDZ BR OVC008=

USA.gov is the U.S. government's official web portal to all federal, state and local government web resources and services.